Time;durP1;ratioP1;P1;durP2;ratioP2;P2;SDS_P1;SDS_P2;PMS_P1;PMS_P2;Temp;Humidity;BMP_temperature;BMP_pressure;BME280_temperature;BME280_humidity;BME280_pressure;Samples;Min_cycle;Max_cycle;Signal;HPM_P1;HPM_P2
2023/12/05 00:02:03;;;;;;;0.20;0.20;;;;;;;0.76;59.22;99926.00;5305699;26;20116;-92
2023/12/05 00:04:29;;;;;;;0.20;0.20;;;;;;;0.95;59.22;99931.28;5305640;26;20461;-92
2023/12/05 00:06:54;;;;;;;0.80;0.80;;;;;;;0.69;59.21;99931.03;5306344;26;20327;-91
2023/12/05 00:09:19;;;;;;;0.60;0.60;;;;;;;0.90;59.23;99932.13;5306118;26;20131;-92
2023/12/05 00:11:45;;;;;;;0.35;0.35;;;;;;;0.78;59.22;99924.31;5306376;26;20143;-92
2023/12/05 00:14:10;;;;;;;1.77;1.23;;;;;;;0.81;59.21;99931.19;5306156;26;20351;-91
2023/12/05 00:16:36;;;;;;;2.22;1.00;;;;;;;0.86;59.21;99924.37;5306619;26;20126;-91
2023/12/05 00:19:01;;;;;;;0.88;0.88;;;;;;;0.88;59.22;99925.25;5324629;26;20076;-90
2023/12/05 00:21:26;;;;;;;0.40;0.40;;;;;;;0.93;59.22;99921.88;5324642;26;20386;-91
2023/12/05 00:23:52;;;;;;;0.80;0.62;;;;;;;1.09;59.23;99934.88;5304980;26;30088;-92
2023/12/05 00:26:18;;;;;;;1.42;1.27;;;;;;;1.07;59.23;99927.16;5306534;26;20083;-91
2023/12/05 00:28:43;;;;;;;0.35;0.35;;;;;;;1.11;59.24;99920.34;5306833;26;20080;-92
2023/12/05 00:31:08;;;;;;;1.05;0.75;;;;;;;1.04;59.23;99922.00;5324954;26;20122;-91
2023/12/05 00:33:34;;;;;;;0.15;0.15;;;;;;;1.18;59.23;99927.25;5306588;26;20401;-91
2023/12/05 00:35:59;;;;;;;1.08;1.00;;;;;;;0.91;59.23;99925.28;5305724;26;27304;-91
2023/12/05 00:38:25;;;;;;;3.03;1.20;;;;;;;1.20;59.24;99918.75;5305976;26;23756;-92
2023/12/05 00:40:50;;;;;;;1.33;1.23;;;;;;;1.15;59.23;99914.41;5305819;26;25881;-92
2023/12/05 00:43:15;;;;;;;2.65;2.25;;;;;;;1.10;59.23;99919.50;5306376;26;20380;-92
2023/12/05 00:45:41;;;;;;;1.60;1.50;;;;;;;1.16;59.24;99908.41;5305639;26;29077;-92
2023/12/05 00:48:06;;;;;;;1.45;1.35;;;;;;;1.22;59.24;99914.47;5306636;26;20064;-92
2023/12/05 00:50:31;;;;;;;0.00;0.00;;;;;;;1.39;59.24;99926.56;5305812;26;30547;-92
2023/12/05 00:52:57;;;;;;;1.55;1.45;;;;;;;1.34;59.25;99929.09;5305914;26;20101;-91
2023/12/05 00:55:22;;;;;;;0.95;0.95;;;;;;;1.23;59.24;99918.75;5343306;26;20119;-91
2023/12/05 00:57:48;;;;;;;0.35;0.35;;;;;;;1.12;59.24;99928.06;5305975;26;22017;-92
2023/12/05 01:00:13;;;;;;;0.15;0.15;;;;;;;1.03;59.24;99930.53;5306390;26;20083;-91
2023/12/05 01:02:39;;;;;;;3.10;1.67;;;;;;;1.02;59.22;99917.72;5306245;26;20086;-91
2023/12/05 01:05:08;;;;;;;0.62;0.62;;;;;;;0.93;59.22;99919.31;5306492;26;20084;-90
2023/12/05 01:07:34;;;;;;;2.47;2.28;;;;;;;1.13;59.23;99916.94;5307279;26;20444;-90
2023/12/05 01:09:59;;;;;;;0.10;0.10;;;;;;;1.07;59.23;99918.59;5324780;26;20097;-91
2023/12/05 01:12:24;;;;;;;0.85;0.85;;;;;;;1.04;59.23;99916.87;5323809;26;28600;-90
2023/12/05 01:14:50;;;;;;;0.70;0.70;;;;;;;0.99;59.23;99912.56;5306175;26;20131;-91
2023/12/05 01:17:15;;;;;;;0.30;0.30;;;;;;;0.91;59.23;99917.59;5306092;26;20440;-91
2023/12/05 01:19:41;;;;;;;0.70;0.70;;;;;;;0.92;59.22;99911.63;5306802;26;20095;-90
2023/12/05 01:22:06;;;;;;;1.05;0.62;;;;;;;0.94;59.22;99907.38;5306023;26;20072;-92
2023/12/05 01:24:32;;;;;;;0.93;0.93;;;;;;;1.08;59.23;99900.69;5306457;26;20332;-90
2023/12/05 01:26:57;;;;;;;1.80;1.15;;;;;;;0.99;59.22;99884.38;5305088;26;21133;-90
2023/12/05 01:29:23;;;;;;;0.93;0.62;;;;;;;0.99;59.22;99874.97;5305951;26;20052;-91
2023/12/05 01:31:48;;;;;;;4.05;1.37;;;;;;;0.78;59.22;99862.84;5305781;26;20146;-90
2023/12/05 01:34:13;;;;;;;0.10;0.10;;;;;;;0.76;59.22;99846.59;5305138;26;23057;-90
2023/12/05 01:36:39;;;;;;;0.80;0.77;;;;;;;0.67;59.21;99832.81;5304777;26;20067;-90
2023/12/05 01:39:04;;;;;;;0.17;0.10;;;;;;;0.59;59.21;99843.88;5305770;26;20126;-89
2023/12/05 01:41:29;;;;;;;0.30;0.30;;;;;;;0.48;59.19;99834.37;5305481;26;20401;-90
2023/12/05 01:43:55;;;;;;;2.90;0.80;;;;;;;0.55;59.20;99824.19;5323752;26;20135;-88
2023/12/05 01:46:20;;;;;;;1.45;1.37;;;;;;;0.54;59.20;99839.53;5306139;26;20471;-89
2023/12/05 01:48:46;;;;;;;0.55;0.55;;;;;;;0.54;59.20;99842.13;5324727;26;20108;-90
2023/12/05 01:51:11;;;;;;;0.10;0.10;;;;;;;0.59;59.21;99843.88;5305950;26;20052;-90
2023/12/05 01:53:38;;;;;;;0.55;0.55;;;;;;;0.48;59.19;99842.91;5324924;26;20417;-89
2023/12/05 01:56:04;;;;;;;0.50;0.47;;;;;;;0.42;59.19;99844.53;5306372;26;20121;-91
2023/12/05 01:58:30;;;;;;;0.37;0.37;;;;;;;0.44;59.20;99833.47;5306271;26;20112;-91
2023/12/05 02:00:56;;;;;;;1.35;1.30;;;;;;;0.44;59.19;99832.59;5305577;26;20583;-90
2023/12/05 02:03:21;;;;;;;1.73;0.98;;;;;;;0.58;59.20;99828.47;5305706;26;22031;-91
2023/12/05 02:05:46;;;;;;;0.57;0.57;;;;;;;0.63;59.20;99831.94;5305021;26;29964;-90
2023/12/05 02:08:12;;;;;;;3.15;0.75;;;;;;;0.71;59.21;99827.75;5305307;26;29453;-91
2023/12/05 02:10:38;;;;;;;0.88;0.88;;;;;;;0.79;59.21;99830.38;5306001;26;20099;-89
2023/12/05 02:13:03;;;;;;;1.62;1.52;;;;;;;0.90;59.22;99816.78;5306474;26;20092;-90
2023/12/05 02:15:29;;;;;;;0.00;0.00;;;;;;;0.85;59.22;99810.78;5306566;26;20330;-90
2023/12/05 02:18:11;;;;;;;0.10;0.10;;;;;;;0.79;59.22;99815.00;5306217;26;23844;-91
2023/12/05 02:20:42;;;;;;;1.17;1.00;;;;;;;0.67;59.21;99799.53;5306804;26;20071;-90
2023/12/05 02:23:15;;;;;;;10.32;3.00;;;;;;;0.50;59.20;99796.84;5324912;26;20064;-91
2023/12/05 02:25:57;;;;;;;0.40;0.25;;;;;;;0.71;59.21;99797.03;5325309;26;20090;-90
2023/12/05 02:28:23;;;;;;;0.35;0.35;;;;;;;0.92;59.22;99788.63;5326229;26;20072;-90
2023/12/05 02:30:49;;;;;;;0.75;0.70;;;;;;;0.98;59.23;99778.44;5306081;26;20087;-89
2023/12/05 02:33:14;;;;;;;0.95;0.95;;;;;;;0.73;59.21;99777.41;5306407;26;20083;-90
2023/12/05 02:35:40;;;;;;;0.00;0.00;;;;;;;0.82;59.22;99780.03;5305801;26;20076;-90
2023/12/05 02:38:20;;;;;;;0.30;0.30;;;;;;;0.93;59.22;99778.38;5306369;26;20437;-91
2023/12/05 02:40:53;;;;;;;;;;;;;;;0.92;59.22;99776.66;5322271;27;20401;-91
2023/12/05 02:43:21;;;;;;;0.70;0.70;;;;;;;0.88;59.22;99774.94;5303192;27;19971;-90
2023/12/05 02:45:46;;;;;;;0.45;0.45;;;;;;;0.86;59.21;99786.00;5285414;27;20065;-90
2023/12/05 02:48:12;;;;;;;1.02;0.93;;;;;;;0.69;59.21;99780.75;5284010;27;26902;-91
2023/12/05 02:50:37;;;;;;;1.40;1.40;;;;;;;0.64;59.21;99789.25;5285180;27;20072;-91
2023/12/05 02:53:03;;;;;;;0.10;0.10;;;;;;;0.70;59.21;99786.72;5285002;27;20076;-91
2023/12/05 02:55:28;;;;;;;0.73;0.73;;;;;;;0.85;59.22;99784.31;5285013;27;20377;-91
2023/12/05 02:57:53;;;;;;;0.88;0.80;;;;;;;1.02;59.22;99774.19;5284376;27;21277;-91
2023/12/05 03:00:19;;;;;;;0.22;0.22;;;;;;;1.10;59.23;99765.69;5284735;27;20135;-91
2023/12/05 03:02:44;;;;;;;2.33;2.12;;;;;;;1.07;59.23;99769.94;5284963;27;20064;-91
2023/12/05 03:05:10;;;;;;;1.90;1.80;;;;;;;1.19;59.24;99764.91;5284340;27;21446;-90
2023/12/05 03:07:36;;;;;;;0.00;0.00;;;;;;;1.29;59.25;99761.53;5284540;27;24138;-90
2023/12/05 03:10:04;;;;;;;0.73;0.73;;;;;;;1.25;59.24;99757.25;5286011;27;20063;-89
2023/12/05 03:12:33;;;;;;;0.10;0.10;;;;;;;1.27;59.24;99758.09;5303642;27;20080;-92
2023/12/05 03:14:58;;;;;;;0.43;0.43;;;;;;;1.17;59.23;99756.31;5286347;27;20052;-92
2023/12/05 03:17:24;;;;;;;0.52;0.52;;;;;;;1.10;59.23;99755.44;5284951;27;20331;-90
2023/12/05 03:19:49;;;;;;;1.10;1.10;;;;;;;1.05;59.23;99744.28;5302702;27;26552;-91
2023/12/05 03:22:14;;;;;;;0.70;0.35;;;;;;;1.02;59.23;99746.84;5285216;27;20116;-91
2023/12/05 03:24:40;;;;;;;3.12;0.95;;;;;;;0.87;59.22;99747.59;5284507;27;23744;-90
2023/12/05 03:27:05;;;;;;;0.93;0.93;;;;;;;1.09;59.23;99743.47;5285699;27;20072;-91
2023/12/05 03:29:30;;;;;;;0.73;0.73;;;;;;;0.97;59.23;99742.53;5284728;27;26128;-90
2023/12/05 03:31:56;;;;;;;0.77;0.77;;;;;;;1.14;59.23;99740.91;5285032;27;20156;-89
2023/12/05 03:34:22;;;;;;;2.03;1.77;;;;;;;1.01;59.23;99741.72;5285984;27;20082;-91
2023/12/05 03:36:47;;;;;;;4.25;1.60;;;;;;;1.12;59.23;99734.94;5285222;27;20053;-91
2023/12/05 03:39:12;;;;;;;1.73;1.62;;;;;;;0.98;59.23;99736.56;5285739;27;20382;-90
2023/12/05 03:41:38;;;;;;;0.22;0.22;;;;;;;0.91;59.22;99722.84;5302780;26;20094;-90
2023/12/05 03:44:03;;;;;;;1.75;1.23;;;;;;;0.69;59.21;99719.28;5325811;26;20092;-90
2023/12/05 03:46:29;;;;;;;8.98;2.17;;;;;;;0.84;59.22;99715.97;5307781;26;20048;-90
2023/12/05 03:48:54;;;;;;;1.00;1.00;;;;;;;0.92;59.22;99715.16;5325636;26;20377;-90
2023/12/05 03:51:20;;;;;;;0.00;0.00;;;;;;;0.83;59.22;99738.19;5324981;26;20131;-91
2023/12/05 03:53:45;;;;;;;0.00;0.00;;;;;;;1.02;59.22;99731.47;5307347;26;20447;-90
2023/12/05 03:56:10;;;;;;;1.58;1.48;;;;;;;1.07;59.23;99722.09;5306927;26;21818;-90
2023/12/05 03:58:36;;;;;;;0.20;0.20;;;;;;;1.09;59.23;99716.97;5307238;26;20143;-90
2023/12/05 04:01:01;;;;;;;0.82;0.80;;;;;;;1.14;59.24;99713.56;5307962;26;20368;-89
2023/12/05 04:03:27;;;;;;;0.68;0.68;;;;;;;0.99;59.23;99723.75;5307132;26;20079;-91
2023/12/05 04:05:52;;;;;;;0.93;0.43;;;;;;;1.00;59.22;99706.69;5307283;26;20090;-91
2023/12/05 04:08:17;;;;;;;0.43;0.43;;;;;;;0.97;59.23;99707.53;5306866;26;20523;-90
2023/12/05 04:10:43;;;;;;;3.60;2.10;;;;;;;0.96;59.22;99717.75;5306888;26;20076;-92
2023/12/05 04:13:08;;;;;;;0.00;0.00;;;;;;;1.03;59.24;99710.13;5307261;26;20111;-91
2023/12/05 04:15:34;;;;;;;0.65;0.65;;;;;;;1.05;59.23;99705.84;5307279;26;20101;-92
2023/12/05 04:17:59;;;;;;;0.55;0.55;;;;;;;1.04;59.24;99709.25;5307171;26;20385;-91
2023/12/05 04:20:25;;;;;;;2.45;2.17;;;;;;;1.19;59.24;99698.25;5307113;26;20065;-92
2023/12/05 04:22:50;;;;;;;1.08;0.65;;;;;;;0.90;59.23;99704.03;5307818;26;20072;-91
2023/12/05 04:25:16;;;;;;;0.77;0.77;;;;;;;1.22;59.24;99696.53;5306667;26;20174;-89
2023/12/05 04:27:41;;;;;;;0.90;0.90;;;;;;;1.24;59.24;99704.25;5323908;26;29199;-90
2023/12/05 04:30:07;;;;;;;0.43;0.32;;;;;;;1.15;59.24;99699.06;5305837;26;20067;-89
2023/12/05 04:32:32;;;;;;;0.88;0.88;;;;;;;0.92;59.22;99710.03;5306306;26;20061;-89
2023/12/05 04:34:58;;;;;;;3.95;3.00;;;;;;;0.98;59.23;99711.81;5305851;26;20071;-90
2023/12/05 04:37:23;;;;;;;0.03;0.03;;;;;;;1.12;59.23;99707.59;5306262;26;20079;-89
2023/12/05 04:39:49;;;;;;;2.07;1.20;;;;;;;1.32;59.24;99701.69;5315935;26;231451;-90
2023/12/05 04:42:14;;;;;;;1.35;1.25;;;;;;;1.29;59.24;99704.25;5284354;27;20057;-90
2023/12/05 04:44:39;;;;;;;0.35;0.35;;;;;;;1.35;59.25;99717.09;5301521;27;20088;-89
2023/12/05 04:47:05;;;;;;;1.10;1.10;;;;;;;1.26;59.24;99705.09;5284023;27;20127;-89
2023/12/05 04:49:30;;;;;;;0.75;0.75;;;;;;;1.32;59.24;99704.28;5301947;27;20053;-89
2023/12/05 04:51:56;;;;;;;0.85;0.85;;;;;;;1.21;59.24;99696.53;5284182;27;20211;-88
2023/12/05 04:54:21;;;;;;;1.87;1.70;;;;;;;1.15;59.23;99707.59;5302087;27;20108;-87
2023/12/05 04:56:46;;;;;;;1.55;1.45;;;;;;;1.06;59.23;99699.00;5320052;27;20275;-89
2023/12/05 04:59:12;;;;;;;0.25;0.25;;;;;;;1.11;59.24;99698.19;5301517;27;28599;-89
2023/12/05 05:01:37;;;;;;;0.82;0.82;;;;;;;1.10;59.23;99708.44;5301387;27;20114;-91
2023/12/05 05:04:03;;;;;;;1.55;1.20;;;;;;;1.26;59.25;99707.66;5302476;27;22595;-91
2023/12/05 05:06:28;;;;;;;0.75;0.37;;;;;;;1.32;59.24;99705.13;5284832;27;20061;-90
2023/12/05 05:08:54;;;;;;;0.03;0.03;;;;;;;1.19;59.24;99703.37;5302304;27;20113;-91
2023/12/05 05:11:19;;;;;;;1.25;1.25;;;;;;;1.28;59.25;99711.09;5302277;27;20098;-91
2023/12/05 05:13:44;;;;;;;0.80;0.80;;;;;;;1.29;59.25;99704.25;5302474;27;20089;-90
2023/12/05 05:16:10;;;;;;;0.10;0.10;;;;;;;1.26;59.24;99712.81;5302337;27;20170;-90
2023/12/05 05:18:37;;;;;;;2.60;2.40;;;;;;;1.50;59.25;99712.91;5283219;27;24774;-91
2023/12/05 05:21:06;;;;;;;4.10;1.58;;;;;;;1.35;59.25;99711.97;5285027;27;20087;-90
2023/12/05 05:23:32;;;;;;;1.65;1.55;;;;;;;1.22;59.24;99703.37;5286827;27;20048;-90
2023/12/05 05:25:57;;;;;;;0.08;0.08;;;;;;;1.30;59.24;99713.66;5289223;27;20041;-91
2023/12/05 05:28:23;;;;;;;0.65;0.52;;;;;;;1.26;59.25;99710.22;5285604;27;20076;-91
2023/12/05 05:30:48;;;;;;;0.37;0.37;;;;;;;1.26;59.24;99715.38;5302107;27;29744;-90
2023/12/05 05:33:14;;;;;;;0.57;0.57;;;;;;;1.25;59.24;99711.09;5284194;27;20162;-89
2023/12/05 05:35:39;;;;;;;7.53;1.08;;;;;;;1.27;59.25;99704.25;5284092;27;20056;-91
2023/12/05 05:38:05;;;;;;;0.45;0.45;;;;;;;1.41;59.25;99712.84;5303730;27;20064;-90
2023/12/05 05:40:30;;;;;;;0.10;0.10;;;;;;;1.55;59.27;99702.66;5309931;26;20073;-92
2023/12/05 05:42:56;;;;;;;1.10;1.10;;;;;;;1.19;59.24;99709.34;5306644;26;20100;-90
2023/12/05 05:45:21;;;;;;;0.98;0.98;;;;;;;1.38;59.24;99711.97;5305157;26;20867;-91
2023/12/05 05:47:46;;;;;;;2.65;1.85;;;;;;;1.43;59.25;99713.75;5307004;26;20115;-93
2023/12/05 05:50:12;;;;;;;0.25;0.25;;;;;;;1.57;59.26;99710.34;5307156;26;24303;-93
2023/12/05 05:52:37;;;;;;;0.62;0.62;;;;;;;1.59;59.26;99712.06;5308006;26;20341;-94
2023/12/05 05:55:04;;;;;;;0.60;0.60;;;;;;;1.60;59.26;99707.78;5308145;26;20058;-94
2023/12/05 05:57:29;;;;;;;0.35;0.28;;;;;;;1.52;59.25;99707.78;5307309;26;20072;-93
2023/12/05 05:59:54;;;;;;;0.43;0.30;;;;;;;1.48;59.26;99706.91;5307029;26;20122;-92
2023/12/05 06:02:20;;;;;;;0.40;0.40;;;;;;;1.49;59.26;99710.34;5307756;26;20117;-92
2023/12/05 06:04:45;;;;;;;1.10;1.10;;;;;;;1.51;59.26;99711.19;5307249;26;20106;-93
2023/12/05 06:07:10;;;;;;;1.10;0.95;;;;;;;1.47;59.25;99706.91;5307165;26;20146;-93
2023/12/05 06:09:36;;;;;;;2.97;2.75;;;;;;;1.52;59.25;99708.62;5306754;26;20659;-93
2023/12/05 06:12:03;;;;;;;0.22;0.22;;;;;;;1.45;59.25;99706.91;5306726;26;20052;-92
2023/12/05 06:14:29;;;;;;;2.17;1.55;;;;;;;1.57;59.26;99708.66;5306898;26;20112;-93
2023/12/05 06:16:54;;;;;;;0.00;0.00;;;;;;;1.49;59.26;99708.62;5306758;26;20117;-94
2023/12/05 06:19:19;;;;;;;0.10;0.10;;;;;;;1.43;59.25;99710.31;5307403;26;20070;-94
2023/12/05 06:21:45;;;;;;;1.08;0.85;;;;;;;1.49;59.26;99713.75;5324860;26;20720;-92
2023/12/05 06:24:10;;;;;;;0.20;0.20;;;;;;;1.59;59.26;99717.19;5325300;26;20056;-93
2023/12/05 06:26:36;;;;;;;16.98;3.00;;;;;;;1.58;59.26;99715.50;5307676;26;20106;-91
2023/12/05 06:29:04;;;;;;;0.25;0.25;;;;;;;1.57;59.26;99711.22;5311858;26;20080;-95
2023/12/05 06:31:29;;;;;;;4.37;1.67;;;;;;;1.66;59.26;99720.66;5307712;26;20105;-92
2023/12/05 06:33:54;;;;;;;0.55;0.55;;;;;;;1.67;59.27;99714.69;5307721;26;20072;-94
2023/12/05 06:36:20;;;;;;;1.23;1.17;;;;;;;1.68;59.26;99709.56;5326301;26;20115;-93
2023/12/05 06:38:45;;;;;;;0.70;0.70;;;;;;;1.64;59.27;99709.50;5307796;26;20107;-93
2023/12/05 06:41:11;;;;;;;0.80;0.80;;;;;;;1.71;59.27;99711.25;5307613;26;20120;-94
2023/12/05 06:43:36;;;;;;;1.08;1.08;;;;;;;1.71;59.27;99708.69;5307686;26;20107;-94
2023/12/05 06:46:02;;;;;;;1.30;1.20;;;;;;;1.63;59.26;99705.22;5325732;26;20056;-94
2023/12/05 06:48:27;;;;;;;1.42;1.25;;;;;;;1.66;59.26;99705.28;5307454;26;20104;-94
2023/12/05 06:50:53;;;;;;;2.90;0.98;;;;;;;1.66;59.26;99700.12;5307287;26;20096;-94
2023/12/05 06:53:18;;;;;;;0.80;0.80;;;;;;;1.71;59.27;99696.72;5343216;26;20116;-96
2023/12/05 06:55:46;;;;;;;1.02;1.02;;;;;;;1.69;59.26;99705.28;5324940;26;20076;-93
2023/12/05 06:58:12;;;;;;;1.23;1.12;;;;;;;1.47;59.25;99709.47;5307326;26;20066;-93
2023/12/05 07:00:37;;;;;;;0.65;0.28;;;;;;;1.60;59.26;99711.22;5306585;26;20056;-94
2023/12/05 07:03:03;;;;;;;0.85;0.85;;;;;;;1.70;59.27;99712.97;5305853;26;20386;-94
2023/12/05 07:05:28;;;;;;;0.68;0.68;;;;;;;1.67;59.26;99722.38;5306460;26;20060;-93
2023/12/05 07:07:56;;;;;;;0.75;0.75;;;;;;;1.62;59.26;99719.78;5305960;26;20076;-93
2023/12/05 07:10:22;;;;;;;1.15;1.10;;;;;;;1.69;59.26;99724.09;5306269;26;20049;-93
2023/12/05 07:12:47;;;;;;;1.02;1.00;;;;;;;1.73;59.27;99723.25;5306044;26;20052;-94
2023/12/05 07:15:13;;;;;;;0.55;0.40;;;;;;;1.83;59.27;99731.81;5306359;26;20088;-93
2023/12/05 07:17:38;;;;;;;0.60;0.60;;;;;;;1.77;59.28;99730.09;5305956;26;20057;-93
2023/12/05 07:20:04;;;;;;;2.80;2.20;;;;;;;1.76;59.26;99733.50;5305656;26;20057;-94
2023/12/05 07:22:29;;;;;;;1.35;1.25;;;;;;;1.78;59.27;99730.94;5306030;26;20669;-94
2023/12/05 07:24:55;;;;;;;4.50;2.35;;;;;;;1.82;59.27;99733.53;5305705;26;20102;-93
2023/12/05 07:27:20;;;;;;;4.37;2.20;;;;;;;1.76;59.26;99740.34;5306757;26;20105;-93
2023/12/05 07:29:46;;;;;;;0.15;0.15;;;;;;;1.99;59.29;99743.84;5313345;26;20064;-94
2023/12/05 07:32:11;;;;;;;0.80;0.80;;;;;;;1.95;59.28;99737.00;5306637;26;20111;-94
2023/12/05 07:34:36;;;;;;;1.02;0.77;;;;;;;1.97;59.28;99729.31;5306791;26;20107;-94
2023/12/05 07:37:03;;;;;;;1.62;1.52;;;;;;;2.09;59.29;99737.00;5325194;26;20097;-94
2023/12/05 07:39:28;;;;;;;0.82;0.82;;;;;;;2.10;59.29;99742.16;5326030;26;20052;-94
2023/12/05 07:41:53;;;;;;;1.17;0.95;;;;;;;1.97;59.28;99742.13;5306813;26;20425;-93
2023/12/05 07:44:19;;;;;;;0.90;0.90;;;;;;;2.07;59.29;99741.28;5306442;26;20111;-94
2023/12/05 07:46:45;;;;;;;3.65;1.55;;;;;;;2.08;59.29;99746.41;5307036;26;20483;-94
2023/12/05 07:49:10;;;;;;;4.68;2.55;;;;;;;2.17;59.29;99743.03;5306996;26;20101;-93
2023/12/05 07:51:36;;;;;;;3.50;1.27;;;;;;;2.08;59.29;99741.28;5325451;26;20056;-94
2023/12/05 07:54:01;;;;;;;1.45;0.98;;;;;;;2.09;59.29;99742.16;5306848;26;20064;-93
2023/12/05 07:56:27;;;;;;;0.85;0.85;;;;;;;2.02;59.29;99746.41;5325455;26;20099;-94
2023/12/05 07:58:52;;;;;;;0.37;0.37;;;;;;;2.18;59.29;99728.47;5307010;26;20083;-94
2023/12/05 08:01:17;;;;;;;2.97;0.93;;;;;;;2.15;59.29;99727.63;5306136;26;20364;-94
2023/12/05 08:03:43;;;;;;;1.75;1.65;;;;;;;2.22;59.30;99732.78;5307058;26;20099;-95
2023/12/05 08:06:08;;;;;;;1.77;0.50;;;;;;;2.17;59.29;99734.47;5306534;26;20322;-94
2023/12/05 08:08:34;;;;;;;1.17;1.12;;;;;;;2.07;59.29;99728.44;5306817;26;20326;-94
2023/12/05 08:11:00;;;;;;;2.00;1.90;;;;;;;2.12;59.29;99722.47;5306869;26;20333;-95
2023/12/05 08:13:26;;;;;;;1.10;1.02;;;;;;;2.27;59.29;99723.34;5306832;26;20136;-94
2023/12/05 08:15:53;;;;;;;0.80;0.80;;;;;;;2.30;59.31;99718.22;5306615;26;20372;-94
2023/12/05 08:18:18;;;;;;;0.77;0.77;;;;;;;2.37;59.31;99713.09;5307217;26;20057;-94
2023/12/05 08:20:44;;;;;;;0.95;0.57;;;;;;;2.43;59.30;99722.50;5307371;26;20098;-95
2023/12/05 08:23:10;;;;;;;0.52;0.52;;;;;;;2.40;59.30;99722.53;5307067;26;20115;-94
2023/12/05 08:25:35;;;;;;;0.55;0.55;;;;;;;2.43;59.32;99718.22;5306877;26;20064;-95
2023/12/05 08:28:00;;;;;;;1.77;1.65;;;;;;;2.32;59.31;99709.66;5306932;26;20378;-94
2023/12/05 08:30:26;;;;;;;0.90;0.90;;;;;;;2.25;59.30;99719.94;5310304;26;20048;-93
2023/12/05 08:32:51;;;;;;;1.40;1.30;;;;;;;2.33;59.30;99720.78;5309175;26;20079;-94
2023/12/05 08:35:17;;;;;;;0.57;0.57;;;;;;;2.27;59.29;99733.63;5306439;26;20155;-95
2023/12/05 08:37:42;;;;;;;1.17;1.08;;;;;;;2.52;59.32;99729.34;5306729;26;20056;-94
2023/12/05 08:40:08;;;;;;;0.90;0.90;;;;;;;2.56;59.31;99724.22;5310384;26;20061;-95
2023/12/05 08:42:34;;;;;;;2.78;2.40;;;;;;;2.55;59.31;99731.91;5310640;26;20075;-93
2023/12/05 08:45:00;;;;;;;2.53;1.70;;;;;;;2.58;59.32;99725.06;5310389;26;20519;-94
2023/12/05 08:47:25;;;;;;;0.40;0.40;;;;;;;2.65;59.33;99720.81;5310832;26;20211;-95
2023/12/05 08:49:51;;;;;;;2.80;2.42;;;;;;;2.62;59.32;99721.66;5310203;26;20076;-94
2023/12/05 08:52:16;;;;;;;10.00;0.90;;;;;;;2.83;59.33;99717.34;5309862;26;23299;-94
2023/12/05 08:54:42;;;;;;;2.95;2.75;;;;;;;2.85;59.33;99716.50;5310321;26;20156;-94
2023/12/05 08:57:07;;;;;;;2.22;0.95;;;;;;;2.73;59.33;99706.22;5310375;26;20107;-93
2023/12/05 08:59:33;;;;;;;0.95;0.95;;;;;;;2.73;59.33;99709.66;5347004;26;20052;-93
2023/12/05 09:01:58;;;;;;;1.70;1.60;;;;;;;2.65;59.33;99720.81;5310483;26;20174;-94
2023/12/05 09:04:24;;;;;;;3.85;1.83;;;;;;;2.61;59.32;99725.09;5310458;26;20451;-95
2023/12/05 09:06:49;;;;;;;2.50;0.60;;;;;;;2.68;59.32;99728.50;5310063;26;20064;-94
2023/12/05 09:09:16;;;;;;;0.20;0.20;;;;;;;2.73;59.33;99714.78;5328731;26;20044;-94
2023/12/05 09:11:42;;;;;;;1.87;1.77;;;;;;;2.80;59.32;99722.47;5310840;26;20060;-94
2023/12/05 09:14:07;;;;;;;4.57;4.07;;;;;;;2.61;59.32;99719.94;5310329;26;20064;-95
2023/12/05 09:16:33;;;;;;;1.37;1.30;;;;;;;2.69;59.32;99731.06;5310425;26;20109;-94
2023/12/05 09:18:58;;;;;;;2.03;1.55;;;;;;;3.00;59.34;99715.59;5310381;26;20110;-94
2023/12/05 09:21:23;;;;;;;2.22;1.67;;;;;;;3.00;59.34;99723.31;5309870;26;20067;-94
2023/12/05 09:23:49;;;;;;;0.75;0.75;;;;;;;2.90;59.34;99726.78;5309875;26;20123;-94
2023/12/05 09:26:15;;;;;;;1.12;1.08;;;;;;;3.01;59.34;99719.87;5310841;26;20076;-95
2023/12/05 09:28:40;;;;;;;0.15;0.15;;;;;;;3.02;59.35;99717.31;5309921;26;20389;-94
2023/12/05 09:31:06;;;;;;;1.50;1.40;;;;;;;3.12;59.35;99715.59;5312818;26;20119;-92
2023/12/05 09:33:31;;;;;;;0.55;0.55;;;;;;;3.27;59.36;99705.22;5330672;26;20076;-94
2023/12/05 09:35:57;;;;;;;0.40;0.40;;;;;;;3.18;59.35;99704.41;5310280;26;20083;-94
2023/12/05 09:38:22;;;;;;;3.20;1.02;;;;;;;3.44;59.36;99705.19;5310081;26;20120;-94
2023/12/05 09:40:48;;;;;;;1.70;1.55;;;;;;;3.39;59.37;99700.06;5309428;26;21352;-94
2023/12/05 09:43:13;;;;;;;4.68;1.05;;;;;;;3.37;59.36;99698.34;5309747;26;20413;-95
2023/12/05 09:45:43;;;;;;;0.28;0.28;;;;;;;3.38;59.36;99694.91;5310012;26;20067;-94
2023/12/05 09:48:10;;;;;;;1.08;1.08;;;;;;;3.26;59.36;99694.94;5311666;26;20079;-94
2023/12/05 09:50:36;;;;;;;0.52;0.52;;;;;;;3.06;59.34;99690.72;5310489;26;20061;-94
2023/12/05 09:53:02;;;;;;;2.25;1.48;;;;;;;3.14;59.35;99689.88;5310687;26;20435;-94
2023/12/05 09:55:27;;;;;;;0.57;0.40;;;;;;;3.18;59.35;99689.00;5310046;26;20060;-94
2023/12/05 09:57:53;;;;;;;0.85;0.85;;;;;;;3.27;59.36;99683.81;5309990;26;20086;-94
2023/12/05 10:00:19;;;;;;;0.60;0.60;;;;;;;3.25;59.36;99680.37;5310057;26;20060;-94
2023/12/05 10:02:46;;;;;;;3.95;1.48;;;;;;;3.23;59.35;99676.97;5310260;26;20102;-94
2023/12/05 10:05:14;;;;;;;0.43;0.43;;;;;;;3.30;59.35;99676.06;5310454;26;20076;-94
2023/12/05 10:07:39;;;;;;;1.73;1.62;;;;;;;3.39;59.37;99673.47;5310104;26;20048;-94
2023/12/05 10:10:05;;;;;;;0.60;0.60;;;;;;;3.46;59.36;99656.28;5309977;26;20150;-94
2023/12/05 10:12:30;;;;;;;0.20;0.20;;;;;;;3.41;59.37;99655.47;5310145;26;20394;-94
2023/12/05 10:14:56;;;;;;;2.10;2.00;;;;;;;3.46;59.38;99643.41;5309809;26;20068;-94
2023/12/05 10:17:21;;;;;;;0.50;0.50;;;;;;;3.56;59.37;99648.53;5309911;26;20080;-94
2023/12/05 10:19:47;;;;;;;2.60;0.80;;;;;;;3.69;59.38;99650.16;5309301;26;20150;-94
2023/12/05 10:22:12;;;;;;;1.08;1.08;;;;;;;3.50;59.37;99639.97;5310303;26;20079;-93
2023/12/05 10:24:45;;;;;;;3.62;1.27;;;;;;;3.57;59.37;99647.66;5309951;26;20089;-94
2023/12/05 10:27:11;;;;;;;0.50;0.50;;;;;;;3.64;59.38;99635.59;5310199;26;20083;-94
2023/12/05 10:29:38;;;;;;;3.17;2.87;;;;;;;3.72;59.38;99627.81;5309920;26;20076;-93
2023/12/05 10:32:03;;;;;;;3.40;2.05;;;;;;;3.90;59.39;99625.13;5310339;26;20748;-93
2023/12/05 10:34:28;;;;;;;1.45;1.35;;;;;;;3.82;59.38;99626.91;5313193;26;20102;-93
2023/12/05 10:37:02;;;;;;;3.83;2.33;;;;;;;3.91;59.40;99625.13;5309750;26;20127;-94
2023/12/05 10:39:34;;;;;;;1.75;1.65;;;;;;;3.97;59.39;99614.78;5310233;26;20383;-94
2023/12/05 10:42:00;;;;;;;2.95;1.77;;;;;;;4.01;59.40;99613.88;5309632;26;20132;-94
2023/12/05 10:44:25;;;;;;;1.40;1.37;;;;;;;4.00;59.40;99622.47;5308964;26;24533;-94
2023/12/05 10:46:56;;;;;;;6.18;2.37;;;;;;;4.06;59.41;99620.75;5308983;26;20726;-93
2023/12/05 10:49:21;;;;;;;0.43;0.43;;;;;;;4.18;59.41;99612.91;5310205;26;20084;-94
2023/12/05 10:51:47;;;;;;;0.68;0.68;;;;;;;4.17;59.41;99603.47;5309478;26;20582;-93
2023/12/05 10:54:12;;;;;;;2.17;1.98;;;;;;;4.10;59.40;99594.09;5309749;26;20110;-93
2023/12/05 10:56:38;;;;;;;1.85;1.75;;;;;;;4.01;59.40;99601.00;5309661;26;20079;-93
2023/12/05 10:59:03;;;;;;;0.70;0.70;;;;;;;3.92;59.40;99598.50;5327746;26;20464;-94
2023/12/05 11:01:29;;;;;;;2.35;2.15;;;;;;;3.86;59.39;99601.12;5310724;26;20059;-94
2023/12/05 11:03:58;;;;;;;0.15;0.15;;;;;;;3.90;59.39;99607.13;5310563;26;20420;-94
2023/12/05 11:06:25;;;;;;;2.53;1.50;;;;;;;3.86;59.39;99600.28;5311666;26;20063;-93
2023/12/05 11:08:50;;;;;;;0.60;0.55;;;;;;;3.77;59.39;99608.06;5311045;26;20079;-94
2023/12/05 11:11:16;;;;;;;0.88;0.85;;;;;;;3.89;59.39;99610.56;5310537;26;20079;-93
2023/12/05 11:13:42;;;;;;;0.17;0.17;;;;;;;3.74;59.38;99616.66;5310782;26;20067;-93
2023/12/05 11:16:16;;;;;;;2.55;2.35;;;;;;;3.89;59.39;99613.97;5310682;26;20067;-93
2023/12/05 11:18:43;;;;;;;1.35;1.15;;;;;;;4.12;59.40;99606.09;5311422;26;20440;-94
2023/12/05 11:21:24;;;;;;;0.13;0.13;;;;;;;4.08;59.40;99606.97;5310874;26;20068;-94
2023/12/05 11:24:02;;;;;;;0.22;0.22;;;;;;;4.00;59.40;99606.16;5347196;26;20105;-92
2023/12/05 11:26:34;;;;;;;0.68;0.68;;;;;;;4.00;59.40;99607.03;5328768;26;20051;-93
2023/12/05 11:29:17;;;;;;;1.45;0.73;;;;;;;3.99;59.40;99609.59;5347283;26;20064;-93
2023/12/05 11:32:00;;;;;;;0.52;0.35;;;;;;;4.01;59.40;99597.56;5328712;26;20060;-94
2023/12/05 11:34:46;;;;;;;1.02;1.02;;;;;;;4.20;59.41;99604.28;5329086;26;20056;-93
2023/12/05 11:37:12;;;;;;;0.30;0.30;;;;;;;4.18;59.41;99597.44;5332858;26;20055;-94